sensor_id;sensor_type;location;lat;lon;timestamp;P1;durP1;ratioP1;P2;durP2;ratioP2
65471;SDS011;52068;50.710;14.492;2024-03-25T00:00:48;5.10;;;3.80;;
65471;SDS011;52068;50.710;14.492;2024-03-25T00:03:14;9.52;;;3.90;;
65471;SDS011;52068;50.710;14.492;2024-03-25T00:05:39;6.80;;;3.80;;
65471;SDS011;52068;50.710;14.492;2024-03-25T00:08:05;7.35;;;4.00;;
65471;SDS011;52068;50.710;14.492;2024-03-25T00:10:30;8.05;;;4.50;;
65471;SDS011;52068;50.710;14.492;2024-03-25T00:12:55;7.45;;;3.97;;
65471;SDS011;52068;50.710;14.492;2024-03-25T00:15:21;9.02;;;3.60;;
65471;SDS011;52068;50.710;14.492;2024-03-25T00:17:48;7.07;;;3.85;;
65471;SDS011;52068;50.710;14.492;2024-03-25T00:20:14;7.63;;;4.10;;
65471;SDS011;52068;50.710;14.492;2024-03-25T00:22:40;5.68;;;3.78;;
65471;SDS011;52068;50.710;14.492;2024-03-25T00:25:06;5.55;;;3.80;;
65471;SDS011;52068;50.710;14.492;2024-03-25T00:27:32;4.55;;;3.60;;
65471;SDS011;52068;50.710;14.492;2024-03-25T00:29:57;7.28;;;3.80;;
65471;SDS011;52068;50.710;14.492;2024-03-25T00:32:23;5.53;;;3.40;;
65471;SDS011;52068;50.710;14.492;2024-03-25T00:34:48;16.38;;;3.80;;
65471;SDS011;52068;50.710;14.492;2024-03-25T00:37:14;7.78;;;3.70;;
65471;SDS011;52068;50.710;14.492;2024-03-25T00:39:39;8.02;;;4.00;;
65471;SDS011;52068;50.710;14.492;2024-03-25T00:42:05;4.53;;;3.30;;
65471;SDS011;52068;50.710;14.492;2024-03-25T00:44:30;6.07;;;3.60;;
65471;SDS011;52068;50.710;14.492;2024-03-25T00:46:56;6.65;;;3.83;;
65471;SDS011;52068;50.710;14.492;2024-03-25T00:49:21;6.93;;;3.63;;
65471;SDS011;52068;50.710;14.492;2024-03-25T00:51:47;7.35;;;3.70;;
65471;SDS011;52068;50.710;14.492;2024-03-25T00:54:12;5.35;;;3.50;;
65471;SDS011;52068;50.710;14.492;2024-03-25T00:56:37;5.50;;;3.03;;
65471;SDS011;52068;50.710;14.492;2024-03-25T00:59:03;6.80;;;4.03;;
65471;SDS011;52068;50.710;14.492;2024-03-25T01:01:29;5.13;;;3.22;;
65471;SDS011;52068;50.710;14.492;2024-03-25T01:03:55;4.13;;;3.08;;
65471;SDS011;52068;50.710;14.492;2024-03-25T01:06:21;4.70;;;3.28;;
65471;SDS011;52068;50.710;14.492;2024-03-25T01:08:46;5.45;;;2.78;;
65471;SDS011;52068;50.710;14.492;2024-03-25T01:11:11;5.03;;;3.25;;
65471;SDS011;52068;50.710;14.492;2024-03-25T01:13:37;5.07;;;3.20;;
65471;SDS011;52068;50.710;14.492;2024-03-25T01:16:02;4.82;;;2.90;;
65471;SDS011;52068;50.710;14.492;2024-03-25T01:18:28;5.13;;;3.53;;
65471;SDS011;52068;50.710;14.492;2024-03-25T01:20:53;5.93;;;3.58;;
65471;SDS011;52068;50.710;14.492;2024-03-25T01:23:19;3.45;;;2.65;;
65471;SDS011;52068;50.710;14.492;2024-03-25T01:25:45;4.07;;;2.85;;
65471;SDS011;52068;50.710;14.492;2024-03-25T01:28:10;4.30;;;2.95;;
65471;SDS011;52068;50.710;14.492;2024-03-25T01:30:36;5.90;;;2.97;;
65471;SDS011;52068;50.710;14.492;2024-03-25T01:33:04;6.50;;;2.60;;
65471;SDS011;52068;50.710;14.492;2024-03-25T01:35:30;3.80;;;2.72;;
65471;SDS011;52068;50.710;14.492;2024-03-25T01:37:56;3.92;;;2.60;;
65471;SDS011;52068;50.710;14.492;2024-03-25T01:40:21;3.22;;;2.67;;
65471;SDS011;52068;50.710;14.492;2024-03-25T01:42:59;6.25;;;2.80;;
65471;SDS011;52068;50.710;14.492;2024-03-25T01:45:25;3.20;;;2.35;;
65471;SDS011;52068;50.710;14.492;2024-03-25T01:47:56;3.50;;;2.80;;
65471;SDS011;52068;50.710;14.492;2024-03-25T01:50:27;5.03;;;2.75;;
65471;SDS011;52068;50.710;14.492;2024-03-25T01:52:58;6.13;;;2.67;;
65471;SDS011;52068;50.710;14.492;2024-03-25T01:55:24;5.57;;;2.70;;
65471;SDS011;52068;50.710;14.492;2024-03-25T01:57:52;3.40;;;2.40;;
65471;SDS011;52068;50.710;14.492;2024-03-25T02:00:18;3.17;;;2.40;;
65471;SDS011;52068;50.710;14.492;2024-03-25T02:02:44;4.97;;;2.50;;
65471;SDS011;52068;50.710;14.492;2024-03-25T02:05:11;4.13;;;2.47;;
65471;SDS011;52068;50.710;14.492;2024-03-25T02:07:37;4.00;;;2.47;;
65471;SDS011;52068;50.710;14.492;2024-03-25T02:10:05;3.55;;;2.25;;
65471;SDS011;52068;50.710;14.492;2024-03-25T02:12:31;3.30;;;2.10;;
65471;SDS011;52068;50.710;14.492;2024-03-25T02:14:58;2.83;;;2.25;;
65471;SDS011;52068;50.710;14.492;2024-03-25T02:17:24;5.40;;;2.40;;
65471;SDS011;52068;50.710;14.492;2024-03-25T02:19:50;3.60;;;2.00;;
65471;SDS011;52068;50.710;14.492;2024-03-25T02:22:16;3.85;;;2.40;;
65471;SDS011;52068;50.710;14.492;2024-03-25T02:24:41;4.15;;;2.60;;
65471;SDS011;52068;50.710;14.492;2024-03-25T02:27:09;4.55;;;2.90;;
65471;SDS011;52068;50.710;14.492;2024-03-25T02:29:39;3.15;;;2.03;;
65471;SDS011;52068;50.710;14.492;2024-03-25T02:32:05;5.03;;;2.40;;
65471;SDS011;52068;50.710;14.492;2024-03-25T02:34:31;13.50;;;2.20;;
65471;SDS011;52068;50.710;14.492;2024-03-25T02:36:56;4.07;;;2.35;;
65471;SDS011;52068;50.710;14.492;2024-03-25T02:39:22;4.45;;;2.40;;
65471;SDS011;52068;50.710;14.492;2024-03-25T02:41:49;2.40;;;1.70;;
65471;SDS011;52068;50.710;14.492;2024-03-25T02:44:15;3.63;;;2.65;;
65471;SDS011;52068;50.710;14.492;2024-03-25T02:46:41;8.23;;;2.20;;
65471;SDS011;52068;50.710;14.492;2024-03-25T02:49:07;2.72;;;1.80;;
65471;SDS011;52068;50.710;14.492;2024-03-25T02:51:32;2.78;;;1.98;;
65471;SDS011;52068;50.710;14.492;2024-03-25T02:53:58;3.25;;;2.08;;
65471;SDS011;52068;50.710;14.492;2024-03-25T02:56:23;2.53;;;2.00;;
65471;SDS011;52068;50.710;14.492;2024-03-25T02:58:48;1.92;;;1.73;;
65471;SDS011;52068;50.710;14.492;2024-03-25T03:01:15;2.97;;;2.03;;
65471;SDS011;52068;50.710;14.492;2024-03-25T03:03:41;2.53;;;1.88;;
65471;SDS011;52068;50.710;14.492;2024-03-25T03:06:06;2.35;;;1.70;;
65471;SDS011;52068;50.710;14.492;2024-03-25T03:08:32;2.80;;;1.70;;
65471;SDS011;52068;50.710;14.492;2024-03-25T03:10:57;4.28;;;2.15;;
65471;SDS011;52068;50.710;14.492;2024-03-25T03:13:22;2.72;;;1.70;;
65471;SDS011;52068;50.710;14.492;2024-03-25T03:15:48;2.60;;;2.00;;
65471;SDS011;52068;50.710;14.492;2024-03-25T03:18:13;2.42;;;1.80;;
65471;SDS011;52068;50.710;14.492;2024-03-25T03:20:39;4.63;;;2.15;;
65471;SDS011;52068;50.710;14.492;2024-03-25T03:23:04;4.45;;;1.60;;
65471;SDS011;52068;50.710;14.492;2024-03-25T03:25:30;3.33;;;1.50;;
65471;SDS011;52068;50.710;14.492;2024-03-25T03:27:56;1.88;;;1.55;;
65471;SDS011;52068;50.710;14.492;2024-03-25T03:30:21;2.15;;;1.75;;
65471;SDS011;52068;50.710;14.492;2024-03-25T03:32:47;2.97;;;1.98;;
65471;SDS011;52068;50.710;14.492;2024-03-25T03:35:12;3.25;;;1.50;;
65471;SDS011;52068;50.710;14.492;2024-03-25T03:37:37;3.35;;;1.77;;
65471;SDS011;52068;50.710;14.492;2024-03-25T03:40:03;1.50;;;1.40;;
65471;SDS011;52068;50.710;14.492;2024-03-25T03:42:31;1.75;;;1.45;;
65471;SDS011;52068;50.710;14.492;2024-03-25T03:44:57;3.13;;;1.70;;
65471;SDS011;52068;50.710;14.492;2024-03-25T03:47:22;2.78;;;1.90;;
65471;SDS011;52068;50.710;14.492;2024-03-25T03:49:47;2.92;;;1.80;;
65471;SDS011;52068;50.710;14.492;2024-03-25T03:52:13;2.92;;;2.00;;
65471;SDS011;52068;50.710;14.492;2024-03-25T03:54:38;3.83;;;1.50;;
65471;SDS011;52068;50.710;14.492;2024-03-25T03:57:04;1.98;;;1.42;;
65471;SDS011;52068;50.710;14.492;2024-03-25T03:59:30;3.53;;;1.60;;
65471;SDS011;52068;50.710;14.492;2024-03-25T04:01:56;1.65;;;1.42;;
65471;SDS011;52068;50.710;14.492;2024-03-25T04:04:21;2.13;;;1.65;;
65471;SDS011;52068;50.710;14.492;2024-03-25T04:06:48;2.45;;;1.48;;
65471;SDS011;52068;50.710;14.492;2024-03-25T04:09:14;1.58;;;1.40;;
65471;SDS011;52068;50.710;14.492;2024-03-25T04:11:39;1.92;;;1.52;;
65471;SDS011;52068;50.710;14.492;2024-03-25T04:14:05;2.55;;;1.27;;
65471;SDS011;52068;50.710;14.492;2024-03-25T04:16:30;2.10;;;1.70;;
65471;SDS011;52068;50.710;14.492;2024-03-25T04:18:56;2.72;;;1.55;;
65471;SDS011;52068;50.710;14.492;2024-03-25T04:21:22;2.25;;;1.30;;
65471;SDS011;52068;50.710;14.492;2024-03-25T04:23:48;1.63;;;1.52;;
65471;SDS011;52068;50.710;14.492;2024-03-25T04:26:14;4.03;;;1.52;;
65471;SDS011;52068;50.710;14.492;2024-03-25T04:28:43;1.77;;;1.40;;
65471;SDS011;52068;50.710;14.492;2024-03-25T04:31:08;1.92;;;1.42;;
65471;SDS011;52068;50.710;14.492;2024-03-25T04:33:34;1.83;;;1.30;;
65471;SDS011;52068;50.710;14.492;2024-03-25T04:36:00;2.50;;;1.50;;
65471;SDS011;52068;50.710;14.492;2024-03-25T04:38:25;1.35;;;1.20;;
65471;SDS011;52068;50.710;14.492;2024-03-25T04:40:51;3.30;;;1.27;;
65471;SDS011;52068;50.710;14.492;2024-03-25T04:43:16;2.58;;;1.40;;
65471;SDS011;52068;50.710;14.492;2024-03-25T04:45:41;2.05;;;1.50;;
65471;SDS011;52068;50.710;14.492;2024-03-25T04:48:07;1.70;;;1.25;;
65471;SDS011;52068;50.710;14.492;2024-03-25T04:50:33;2.22;;;1.30;;
65471;SDS011;52068;50.710;14.492;2024-03-25T04:52:58;1.77;;;1.23;;
65471;SDS011;52068;50.710;14.492;2024-03-25T04:55:24;1.90;;;1.42;;
65471;SDS011;52068;50.710;14.492;2024-03-25T04:57:49;2.60;;;1.25;;
65471;SDS011;52068;50.710;14.492;2024-03-25T05:00:15;1.40;;;1.10;;
65471;SDS011;52068;50.710;14.492;2024-03-25T05:02:40;1.60;;;1.20;;
65471;SDS011;52068;50.710;14.492;2024-03-25T05:05:06;1.90;;;1.17;;
65471;SDS011;52068;50.710;14.492;2024-03-25T05:07:32;1.92;;;1.02;;
65471;SDS011;52068;50.710;14.492;2024-03-25T05:09:58;1.88;;;1.30;;
65471;SDS011;52068;50.710;14.492;2024-03-25T05:12:24;2.28;;;1.20;;
65471;SDS011;52068;50.710;14.492;2024-03-25T05:14:52;1.52;;;1.20;;
65471;SDS011;52068;50.710;14.492;2024-03-25T05:17:17;1.98;;;1.25;;
65471;SDS011;52068;50.710;14.492;2024-03-25T05:19:43;2.92;;;1.15;;
65471;SDS011;52068;50.710;14.492;2024-03-25T05:22:08;3.47;;;1.15;;
65471;SDS011;52068;50.710;14.492;2024-03-25T05:24:34;1.67;;;1.10;;
65471;SDS011;52068;50.710;14.492;2024-03-25T05:26:59;1.50;;;1.23;;
65471;SDS011;52068;50.710;14.492;2024-03-25T05:29:24;4.35;;;1.27;;
65471;SDS011;52068;50.710;14.492;2024-03-25T05:31:59;1.77;;;1.38;;
65471;SDS011;52068;50.710;14.492;2024-03-25T05:34:26;3.17;;;1.25;;
65471;SDS011;52068;50.710;14.492;2024-03-25T05:36:52;1.65;;;1.10;;
65471;SDS011;52068;50.710;14.492;2024-03-25T05:39:18;2.13;;;1.20;;
65471;SDS011;52068;50.710;14.492;2024-03-25T05:41:44;4.15;;;1.30;;
65471;SDS011;52068;50.710;14.492;2024-03-25T05:44:09;3.22;;;1.15;;
65471;SDS011;52068;50.710;14.492;2024-03-25T05:46:35;2.67;;;1.13;;
65471;SDS011;52068;50.710;14.492;2024-03-25T05:49:03;5.45;;;1.10;;
65471;SDS011;52068;50.710;14.492;2024-03-25T05:51:29;1.17;;;1.00;;
65471;SDS011;52068;50.710;14.492;2024-03-25T05:53:55;2.35;;;1.00;;
65471;SDS011;52068;50.710;14.492;2024-03-25T05:56:21;3.22;;;1.02;;
65471;SDS011;52068;50.710;14.492;2024-03-25T05:58:46;1.27;;;1.10;;
65471;SDS011;52068;50.710;14.492;2024-03-25T06:01:12;4.55;;;1.27;;
65471;SDS011;52068;50.710;14.492;2024-03-25T06:03:37;8.25;;;1.00;;
65471;SDS011;52068;50.710;14.492;2024-03-25T06:06:04;1.75;;;1.27;;
65471;SDS011;52068;50.710;14.492;2024-03-25T06:08:29;9.05;;;1.35;;
65471;SDS011;52068;50.710;14.492;2024-03-25T06:10:59;2.97;;;1.10;;
65471;SDS011;52068;50.710;14.492;2024-03-25T06:13:25;3.17;;;1.20;;
65471;SDS011;52068;50.710;14.492;2024-03-25T06:15:51;2.58;;;1.20;;
65471;SDS011;52068;50.710;14.492;2024-03-25T06:18:16;2.30;;;1.10;;
65471;SDS011;52068;50.710;14.492;2024-03-25T06:20:42;2.65;;;1.20;;
65471;SDS011;52068;50.710;14.492;2024-03-25T06:23:07;3.70;;;1.20;;
65471;SDS011;52068;50.710;14.492;2024-03-25T06:25:32;3.17;;;1.13;;
65471;SDS011;52068;50.710;14.492;2024-03-25T06:28:00;4.25;;;1.10;;
65471;SDS011;52068;50.710;14.492;2024-03-25T06:30:26;3.95;;;0.80;;
65471;SDS011;52068;50.710;14.492;2024-03-25T06:33:10;1.40;;;1.05;;
65471;SDS011;52068;50.710;14.492;2024-03-25T06:35:54;3.28;;;1.08;;
65471;SDS011;52068;50.710;14.492;2024-03-25T06:38:19;3.53;;;0.80;;
65471;SDS011;52068;50.710;14.492;2024-03-25T06:40:45;1.17;;;0.95;;
65471;SDS011;52068;50.710;14.492;2024-03-25T06:43:10;1.10;;;1.00;;
65471;SDS011;52068;50.710;14.492;2024-03-25T06:45:36;1.75;;;1.05;;
65471;SDS011;52068;50.710;14.492;2024-03-25T06:48:01;4.40;;;1.10;;
65471;SDS011;52068;50.710;14.492;2024-03-25T06:50:27;3.60;;;0.95;;
65471;SDS011;52068;50.710;14.492;2024-03-25T06:52:55;7.90;;;1.00;;
65471;SDS011;52068;50.710;14.492;2024-03-25T06:55:21;1.73;;;1.42;;
65471;SDS011;52068;50.710;14.492;2024-03-25T06:57:50;1.40;;;0.90;;
65471;SDS011;52068;50.710;14.492;2024-03-25T07:00:15;1.73;;;1.00;;
65471;SDS011;52068;50.710;14.492;2024-03-25T07:02:41;9.30;;;1.00;;
65471;SDS011;52068;50.710;14.492;2024-03-25T07:05:06;2.05;;;0.88;;
65471;SDS011;52068;50.710;14.492;2024-03-25T07:07:32;3.80;;;0.90;;
65471;SDS011;52068;50.710;14.492;2024-03-25T07:09:59;2.35;;;1.42;;
65471;SDS011;52068;50.710;14.492;2024-03-25T07:12:24;1.70;;;1.25;;
65471;SDS011;52068;50.710;14.492;2024-03-25T07:14:50;1.00;;;0.85;;
65471;SDS011;52068;50.710;14.492;2024-03-25T07:17:15;3.40;;;1.10;;
65471;SDS011;52068;50.710;14.492;2024-03-25T07:19:40;1.60;;;0.85;;
65471;SDS011;52068;50.710;14.492;2024-03-25T07:22:06;0.90;;;0.85;;
65471;SDS011;52068;50.710;14.492;2024-03-25T07:24:32;2.38;;;1.10;;
65471;SDS011;52068;50.710;14.492;2024-03-25T07:26:57;1.25;;;0.90;;
65471;SDS011;52068;50.710;14.492;2024-03-25T07:29:22;1.00;;;0.70;;
65471;SDS011;52068;50.710;14.492;2024-03-25T07:31:48;1.70;;;1.13;;
65471;SDS011;52068;50.710;14.492;2024-03-25T07:34:14;0.90;;;0.90;;
65471;SDS011;52068;50.710;14.492;2024-03-25T07:36:39;2.00;;;1.00;;
65471;SDS011;52068;50.710;14.492;2024-03-25T07:39:04;3.17;;;1.17;;
65471;SDS011;52068;50.710;14.492;2024-03-25T07:41:36;1.40;;;1.02;;
65471;SDS011;52068;50.710;14.492;2024-03-25T07:44:01;0.95;;;0.80;;
65471;SDS011;52068;50.710;14.492;2024-03-25T07:46:27;1.10;;;0.80;;
65471;SDS011;52068;50.710;14.492;2024-03-25T07:48:52;2.08;;;0.88;;
65471;SDS011;52068;50.710;14.492;2024-03-25T07:51:17;1.40;;;1.00;;
65471;SDS011;52068;50.710;14.492;2024-03-25T07:53:43;1.00;;;0.90;;
65471;SDS011;52068;50.710;14.492;2024-03-25T07:56:09;1.88;;;0.80;;
65471;SDS011;52068;50.710;14.492;2024-03-25T07:58:34;1.95;;;1.00;;
65471;SDS011;52068;50.710;14.492;2024-03-25T08:00:59;0.70;;;0.70;;
65471;SDS011;52068;50.710;14.492;2024-03-25T08:03:25;2.72;;;1.08;;
65471;SDS011;52068;50.710;14.492;2024-03-25T08:05:51;1.25;;;0.70;;
65471;SDS011;52068;50.710;14.492;2024-03-25T08:08:16;1.15;;;0.80;;
65471;SDS011;52068;50.710;14.492;2024-03-25T08:10:41;0.63;;;0.63;;
65471;SDS011;52068;50.710;14.492;2024-03-25T08:13:07;1.23;;;0.90;;
65471;SDS011;52068;50.710;14.492;2024-03-25T08:15:32;3.75;;;0.95;;
65471;SDS011;52068;50.710;14.492;2024-03-25T08:17:57;1.48;;;0.82;;
65471;SDS011;52068;50.710;14.492;2024-03-25T08:20:23;1.23;;;0.73;;
65471;SDS011;52068;50.710;14.492;2024-03-25T08:22:48;1.17;;;0.85;;
65471;SDS011;52068;50.710;14.492;2024-03-25T08:25:14;0.73;;;0.60;;
65471;SDS011;52068;50.710;14.492;2024-03-25T08:27:39;1.25;;;1.05;;
65471;SDS011;52068;50.710;14.492;2024-03-25T08:30:05;1.58;;;0.90;;
65471;SDS011;52068;50.710;14.492;2024-03-25T08:32:31;0.82;;;0.82;;
65471;SDS011;52068;50.710;14.492;2024-03-25T08:34:57;3.72;;;1.00;;
65471;SDS011;52068;50.710;14.492;2024-03-25T08:37:23;1.17;;;0.88;;
65471;SDS011;52068;50.710;14.492;2024-03-25T08:39:48;0.73;;;0.65;;
65471;SDS011;52068;50.710;14.492;2024-03-25T08:42:14;1.15;;;0.90;;
65471;SDS011;52068;50.710;14.492;2024-03-25T08:44:39;2.58;;;0.90;;
65471;SDS011;52068;50.710;14.492;2024-03-25T08:47:05;2.47;;;0.82;;
65471;SDS011;52068;50.710;14.492;2024-03-25T08:49:30;0.90;;;0.73;;
65471;SDS011;52068;50.710;14.492;2024-03-25T08:51:55;0.80;;;0.60;;
65471;SDS011;52068;50.710;14.492;2024-03-25T08:54:21;3.35;;;1.00;;
65471;SDS011;52068;50.710;14.492;2024-03-25T08:56:46;1.52;;;1.00;;
65471;SDS011;52068;50.710;14.492;2024-03-25T08:59:12;1.88;;;1.17;;
65471;SDS011;52068;50.710;14.492;2024-03-25T09:01:37;1.17;;;0.80;;
65471;SDS011;52068;50.710;14.492;2024-03-25T09:04:03;1.52;;;0.82;;
65471;SDS011;52068;50.710;14.492;2024-03-25T09:06:29;1.77;;;0.90;;
65471;SDS011;52068;50.710;14.492;2024-03-25T09:08:54;2.22;;;1.00;;
65471;SDS011;52068;50.710;14.492;2024-03-25T09:11:38;0.85;;;0.75;;
65471;SDS011;52068;50.710;14.492;2024-03-25T09:14:04;1.05;;;0.90;;
65471;SDS011;52068;50.710;14.492;2024-03-25T09:16:31;1.48;;;0.70;;
65471;SDS011;52068;50.710;14.492;2024-03-25T09:18:56;1.25;;;0.95;;
65471;SDS011;52068;50.710;14.492;2024-03-25T09:21:22;1.00;;;0.90;;
65471;SDS011;52068;50.710;14.492;2024-03-25T09:23:49;1.70;;;1.08;;
65471;SDS011;52068;50.710;14.492;2024-03-25T09:26:15;1.35;;;0.80;;
65471;SDS011;52068;50.710;14.492;2024-03-25T09:28:40;1.15;;;0.95;;
65471;SDS011;52068;50.710;14.492;2024-03-25T09:31:05;1.27;;;0.75;;
65471;SDS011;52068;50.710;14.492;2024-03-25T09:33:31;2.22;;;1.13;;
65471;SDS011;52068;50.710;14.492;2024-03-25T09:35:57;1.63;;;0.75;;
65471;SDS011;52068;50.710;14.492;2024-03-25T09:38:22;1.85;;;0.70;;
65471;SDS011;52068;50.710;14.492;2024-03-25T09:40:47;1.70;;;0.80;;
65471;SDS011;52068;50.710;14.492;2024-03-25T09:43:27;1.40;;;1.00;;
65471;SDS011;52068;50.710;14.492;2024-03-25T09:45:56;1.27;;;0.90;;
65471;SDS011;52068;50.710;14.492;2024-03-25T09:48:24;1.10;;;0.70;;
65471;SDS011;52068;50.710;14.492;2024-03-25T09:50:49;2.22;;;1.10;;
65471;SDS011;52068;50.710;14.492;2024-03-25T09:53:17;2.58;;;0.90;;
65471;SDS011;52068;50.710;14.492;2024-03-25T09:55:42;1.75;;;0.90;;
65471;SDS011;52068;50.710;14.492;2024-03-25T09:58:08;4.32;;;1.17;;
65471;SDS011;52068;50.710;14.492;2024-03-25T10:00:34;3.92;;;1.00;;
65471;SDS011;52068;50.710;14.492;2024-03-25T10:02:59;1.48;;;0.90;;
65471;SDS011;52068;50.710;14.492;2024-03-25T10:05:24;1.35;;;1.00;;
65471;SDS011;52068;50.710;14.492;2024-03-25T10:07:50;2.85;;;0.80;;
65471;SDS011;52068;50.710;14.492;2024-03-25T10:10:19;2.17;;;0.82;;
65471;SDS011;52068;50.710;14.492;2024-03-25T10:12:45;1.58;;;0.90;;
65471;SDS011;52068;50.710;14.492;2024-03-25T10:15:15;3.40;;;1.00;;
65471;SDS011;52068;50.710;14.492;2024-03-25T10:17:41;0.70;;;0.70;;
65471;SDS011;52068;50.710;14.492;2024-03-25T10:20:06;2.22;;;0.90;;
65471;SDS011;52068;50.710;14.492;2024-03-25T10:22:43;3.38;;;0.93;;
65471;SDS011;52068;50.710;14.492;2024-03-25T10:28:05;1.52;;;0.82;;
65471;SDS011;52068;50.710;14.492;2024-03-25T10:30:31;2.28;;;1.05;;
65471;SDS011;52068;50.710;14.492;2024-03-25T10:33:03;4.20;;;0.85;;
65471;SDS011;52068;50.710;14.492;2024-03-25T10:35:31;1.13;;;0.70;;
65471;SDS011;52068;50.710;14.492;2024-03-25T10:38:04;1.77;;;0.85;;
65471;SDS011;52068;50.710;14.492;2024-03-25T10:40:31;3.05;;;0.73;;
65471;SDS011;52068;50.710;14.492;2024-03-25T10:45:34;3.42;;;0.80;;
65471;SDS011;52068;50.710;14.492;2024-03-25T10:48:48;1.10;;;0.70;;
65471;SDS011;52068;50.710;14.492;2024-03-25T10:53:21;2.00;;;0.70;;
65471;SDS011;52068;50.710;14.492;2024-03-25T10:55:53;3.00;;;1.00;;
65471;SDS011;52068;50.710;14.492;2024-03-25T10:58:20;2.47;;;0.80;;
65471;SDS011;52068;50.710;14.492;2024-03-25T11:00:47;1.45;;;0.95;;
65471;SDS011;52068;50.710;14.492;2024-03-25T11:03:13;0.82;;;0.70;;
65471;SDS011;52068;50.710;14.492;2024-03-25T11:05:39;3.92;;;0.93;;
65471;SDS011;52068;50.710;14.492;2024-03-25T11:10:43;2.50;;;0.80;;
65471;SDS011;52068;50.710;14.492;2024-03-25T11:13:16;2.35;;;0.70;;
65471;SDS011;52068;50.710;14.492;2024-03-25T11:15:44;1.92;;;0.77;;
65471;SDS011;52068;50.710;14.492;2024-03-25T11:18:14;2.90;;;0.82;;
65471;SDS011;52068;50.710;14.492;2024-03-25T11:20:40;2.63;;;0.73;;
65471;SDS011;52068;50.710;14.492;2024-03-25T11:23:10;1.00;;;0.77;;
65471;SDS011;52068;50.710;14.492;2024-03-25T11:25:36;1.92;;;0.63;;
65471;SDS011;52068;50.710;14.492;2024-03-25T11:28:02;1.17;;;0.60;;
65471;SDS011;52068;50.710;14.492;2024-03-25T11:30:29;3.45;;;1.05;;
65471;SDS011;52068;50.710;14.492;2024-03-25T11:32:56;3.58;;;0.73;;
65471;SDS011;52068;50.710;14.492;2024-03-25T11:35:22;2.13;;;0.85;;
65471;SDS011;52068;50.710;14.492;2024-03-25T11:37:47;2.03;;;0.80;;
65471;SDS011;52068;50.710;14.492;2024-03-25T11:40:15;1.48;;;0.80;;
65471;SDS011;52068;50.710;14.492;2024-03-25T11:42:41;0.75;;;0.55;;
65471;SDS011;52068;50.710;14.492;2024-03-25T11:45:10;1.70;;;0.80;;
65471;SDS011;52068;50.710;14.492;2024-03-25T11:47:42;1.10;;;0.70;;
65471;SDS011;52068;50.710;14.492;2024-03-25T11:50:10;2.47;;;0.70;;
65471;SDS011;52068;50.710;14.492;2024-03-25T11:52:40;4.20;;;1.00;;
65471;SDS011;52068;50.710;14.492;2024-03-25T11:55:06;1.08;;;0.93;;
65471;SDS011;52068;50.710;14.492;2024-03-25T11:57:33;1.27;;;0.90;;
65471;SDS011;52068;50.710;14.492;2024-03-25T11:59:59;3.83;;;1.17;;
65471;SDS011;52068;50.710;14.492;2024-03-25T12:02:25;2.17;;;0.82;;
65471;SDS011;52068;50.710;14.492;2024-03-25T12:04:51;2.60;;;0.88;;
65471;SDS011;52068;50.710;14.492;2024-03-25T12:07:16;3.33;;;1.10;;
65471;SDS011;52068;50.710;14.492;2024-03-25T12:09:42;1.92;;;1.05;;
65471;SDS011;52068;50.710;14.492;2024-03-25T12:12:26;1.48;;;0.88;;
65471;SDS011;52068;50.710;14.492;2024-03-25T12:14:52;3.15;;;1.67;;
65471;SDS011;52068;50.710;14.492;2024-03-25T12:17:22;1.58;;;0.90;;
65471;SDS011;52068;50.710;14.492;2024-03-25T12:20:03;5.85;;;1.35;;
65471;SDS011;52068;50.710;14.492;2024-03-25T12:22:33;4.63;;;1.30;;
65471;SDS011;52068;50.710;14.492;2024-03-25T12:25:00;5.05;;;1.10;;
65471;SDS011;52068;50.710;14.492;2024-03-25T12:27:27;2.30;;;1.20;;
65471;SDS011;52068;50.710;14.492;2024-03-25T12:30:00;7.25;;;1.48;;
65471;SDS011;52068;50.710;14.492;2024-03-25T12:34:59;3.53;;;1.30;;
65471;SDS011;52068;50.710;14.492;2024-03-25T12:37:26;2.05;;;1.13;;
65471;SDS011;52068;50.710;14.492;2024-03-25T12:39:51;3.00;;;1.20;;
65471;SDS011;52068;50.710;14.492;2024-03-25T12:42:17;3.45;;;1.00;;
65471;SDS011;52068;50.710;14.492;2024-03-25T12:44:43;4.10;;;1.00;;
65471;SDS011;52068;50.710;14.492;2024-03-25T12:47:08;2.17;;;1.15;;
65471;SDS011;52068;50.710;14.492;2024-03-25T12:49:34;1.25;;;0.73;;
65471;SDS011;52068;50.710;14.492;2024-03-25T12:51:59;4.28;;;1.10;;
65471;SDS011;52068;50.710;14.492;2024-03-25T12:54:25;2.67;;;1.25;;
65471;SDS011;52068;50.710;14.492;2024-03-25T12:56:50;2.00;;;0.90;;
65471;SDS011;52068;50.710;14.492;2024-03-25T12:59:15;2.38;;;0.95;;
65471;SDS011;52068;50.710;14.492;2024-03-25T13:01:41;2.10;;;1.30;;
65471;SDS011;52068;50.710;14.492;2024-03-25T13:04:06;3.13;;;1.27;;
65471;SDS011;52068;50.710;14.492;2024-03-25T13:06:32;2.65;;;1.23;;
65471;SDS011;52068;50.710;14.492;2024-03-25T13:08:58;2.28;;;1.27;;
65471;SDS011;52068;50.710;14.492;2024-03-25T13:11:23;3.47;;;1.10;;
65471;SDS011;52068;50.710;14.492;2024-03-25T13:13:48;3.83;;;1.17;;
65471;SDS011;52068;50.710;14.492;2024-03-25T13:16:14;4.10;;;0.90;;
65471;SDS011;52068;50.710;14.492;2024-03-25T13:18:39;2.35;;;0.93;;
65471;SDS011;52068;50.710;14.492;2024-03-25T13:21:04;1.48;;;1.13;;
65471;SDS011;52068;50.710;14.492;2024-03-25T13:23:30;1.98;;;1.13;;
65471;SDS011;52068;50.710;14.492;2024-03-25T13:25:55;2.72;;;1.15;;
65471;SDS011;52068;50.710;14.492;2024-03-25T13:28:21;2.58;;;1.13;;
65471;SDS011;52068;50.710;14.492;2024-03-25T13:30:47;2.58;;;1.13;;
65471;SDS011;52068;50.710;14.492;2024-03-25T13:33:12;3.53;;;1.30;;
65471;SDS011;52068;50.710;14.492;2024-03-25T13:35:38;3.72;;;1.30;;
65471;SDS011;52068;50.710;14.492;2024-03-25T13:38:03;4.00;;;1.52;;
65471;SDS011;52068;50.710;14.492;2024-03-25T13:40:28;2.17;;;0.82;;
65471;SDS011;52068;50.710;14.492;2024-03-25T13:42:54;2.45;;;1.30;;
65471;SDS011;52068;50.710;14.492;2024-03-25T13:45:19;2.38;;;1.10;;
65471;SDS011;52068;50.710;14.492;2024-03-25T13:47:45;1.92;;;1.10;;
65471;SDS011;52068;50.710;14.492;2024-03-25T13:50:10;2.75;;;1.23;;
65471;SDS011;52068;50.710;14.492;2024-03-25T13:52:36;2.72;;;0.93;;
65471;SDS011;52068;50.710;14.492;2024-03-25T13:55:02;2.05;;;1.10;;
65471;SDS011;52068;50.710;14.492;2024-03-25T13:57:27;7.20;;;1.20;;
65471;SDS011;52068;50.710;14.492;2024-03-25T13:59:53;1.33;;;0.80;;
65471;SDS011;52068;50.710;14.492;2024-03-25T14:02:18;3.55;;;1.17;;
65471;SDS011;52068;50.710;14.492;2024-03-25T14:04:44;1.35;;;1.02;;
65471;SDS011;52068;50.710;14.492;2024-03-25T14:07:10;3.13;;;1.30;;
65471;SDS011;52068;50.710;14.492;2024-03-25T14:09:36;1.52;;;1.10;;
65471;SDS011;52068;50.710;14.492;2024-03-25T14:12:01;3.08;;;1.20;;
65471;SDS011;52068;50.710;14.492;2024-03-25T14:14:28;2.75;;;1.08;;
65471;SDS011;52068;50.710;14.492;2024-03-25T14:16:54;1.65;;;0.85;;
65471;SDS011;52068;50.710;14.492;2024-03-25T14:19:19;4.38;;;1.10;;
65471;SDS011;52068;50.710;14.492;2024-03-25T14:21:45;3.40;;;1.20;;
65471;SDS011;52068;50.710;14.492;2024-03-25T14:24:10;1.92;;;1.20;;
65471;SDS011;52068;50.710;14.492;2024-03-25T14:26:35;1.70;;;1.10;;
65471;SDS011;52068;50.710;14.492;2024-03-25T14:29:01;1.17;;;0.90;;
65471;SDS011;52068;50.710;14.492;2024-03-25T14:31:26;3.60;;;1.13;;
65471;SDS011;52068;50.710;14.492;2024-03-25T14:33:54;1.13;;;0.82;;
65471;SDS011;52068;50.710;14.492;2024-03-25T14:36:20;2.15;;;0.90;;
65471;SDS011;52068;50.710;14.492;2024-03-25T14:38:45;1.30;;;1.00;;
65471;SDS011;52068;50.710;14.492;2024-03-25T14:41:18;1.20;;;1.02;;